createdAt,value
2019-06-08T00:00:01.032Z,975.93
2019-06-08T00:01:01.032Z,975.93
2019-06-08T00:02:01.032Z,976.01
2019-06-08T00:03:01.038Z,975.95
2019-06-08T00:04:01.058Z,975.93
2019-06-08T00:05:01.034Z,975.92
2019-06-08T00:06:01.031Z,975.92
2019-06-08T00:07:01.031Z,975.94
2019-06-08T00:08:01.033Z,976.03
2019-06-08T00:09:01.071Z,976.14
2019-06-08T00:10:01.037Z,976.07
2019-06-08T00:11:01.077Z,976.11
2019-06-08T00:12:01.030Z,976.21
2019-06-08T00:13:01.117Z,976.20
2019-06-08T00:14:01.067Z,976.19
2019-06-08T00:15:01.032Z,976.16
2019-06-08T00:16:01.049Z,976.12
2019-06-08T00:17:01.038Z,976.11
2019-06-08T00:18:01.043Z,976.16
2019-06-08T00:19:01.072Z,976.18
2019-06-08T00:20:01.033Z,976.26
2019-06-08T00:21:01.034Z,976.28
2019-06-08T00:22:01.035Z,976.16
2019-06-08T00:23:01.041Z,976.26
2019-06-08T00:24:01.101Z,976.32
2019-06-08T00:25:01.069Z,976.38
2019-06-08T00:26:01.040Z,976.43
2019-06-08T00:27:01.043Z,976.38
2019-06-08T00:28:01.049Z,976.37
2019-06-08T00:29:01.044Z,976.33
2019-06-08T00:30:01.152Z,976.27
2019-06-08T00:31:01.043Z,976.28
2019-06-08T00:32:01.048Z,976.37
2019-06-08T00:33:01.045Z,976.54
2019-06-08T00:34:01.039Z,976.68
2019-06-08T00:35:01.071Z,976.64
2019-06-08T00:36:01.051Z,976.58
2019-06-08T00:37:01.053Z,976.62
2019-06-08T00:38:01.044Z,976.65
2019-06-08T00:39:01.045Z,976.58
2019-06-08T00:40:01.076Z,976.56
2019-06-08T00:41:01.053Z,976.47
2019-06-08T00:42:01.044Z,976.42
2019-06-08T00:43:01.041Z,976.45
2019-06-08T00:44:01.052Z,976.43
2019-06-08T00:45:01.072Z,976.47
2019-06-08T00:46:01.048Z,976.43
2019-06-08T00:47:01.050Z,976.43
2019-06-08T00:48:01.052Z,976.44
2019-06-08T00:49:01.050Z,976.36
2019-06-08T00:50:01.074Z,976.41
2019-06-08T00:51:01.057Z,976.46
2019-06-08T00:52:01.053Z,976.40
2019-06-08T00:53:01.051Z,976.45
2019-06-08T00:54:01.058Z,976.50
2019-06-08T00:55:01.090Z,976.51
2019-06-08T00:56:01.047Z,976.52
2019-06-08T00:57:01.055Z,976.62
2019-06-08T00:58:01.053Z,976.66
2019-06-08T00:59:01.052Z,976.67
2019-06-08T01:00:09.722Z,976.71
2019-06-08T01:01:01.059Z,976.74
2019-06-08T01:02:01.054Z,976.69
2019-06-08T01:03:01.050Z,976.71
2019-06-08T01:04:01.052Z,976.80
2019-06-08T01:05:01.088Z,976.77
2019-06-08T01:06:01.049Z,976.71
2019-06-08T01:07:01.047Z,976.66
2019-06-08T01:08:01.047Z,976.64
2019-06-08T01:09:01.043Z,976.67
2019-06-08T01:10:01.085Z,976.69
2019-06-08T01:11:01.045Z,976.65
2019-06-08T01:12:01.044Z,976.72
2019-06-08T01:13:01.045Z,976.70
2019-06-08T01:14:01.063Z,976.73
2019-06-08T01:15:01.103Z,976.73
2019-06-08T01:16:01.039Z,976.75
2019-06-08T01:17:01.041Z,976.73
2019-06-08T01:18:03.814Z,976.77
2019-06-08T01:19:01.052Z,976.76
2019-06-08T01:20:01.076Z,976.78
2019-06-08T01:21:01.052Z,976.82
2019-06-08T01:22:01.049Z,976.78
2019-06-08T01:23:01.037Z,976.70
2019-06-08T01:24:01.042Z,976.73
2019-06-08T01:25:01.079Z,976.71
2019-06-08T01:26:01.047Z,976.69
2019-06-08T01:27:01.043Z,976.61
2019-06-08T01:28:01.037Z,976.60
2019-06-08T01:29:01.050Z,976.61
2019-06-08T01:30:01.072Z,976.55
2019-06-08T01:31:01.040Z,976.56
2019-06-08T01:32:01.039Z,976.54
2019-06-08T01:33:01.048Z,976.58
2019-06-08T01:34:01.051Z,976.55
2019-06-08T01:35:01.062Z,976.58
2019-06-08T01:36:01.041Z,976.50
2019-06-08T01:37:01.035Z,976.52
2019-06-08T01:38:01.036Z,976.45
2019-06-08T01:39:01.037Z,976.45
2019-06-08T01:40:01.067Z,976.47
2019-06-08T01:41:01.045Z,976.51
2019-06-08T01:42:01.030Z,976.45
2019-06-08T01:43:01.035Z,976.40
2019-06-08T01:44:01.065Z,976.39
2019-06-08T01:45:01.026Z,976.35
2019-06-08T01:46:01.034Z,976.31
2019-06-08T01:47:01.037Z,976.29
2019-06-08T01:48:01.036Z,976.37
2019-06-08T01:49:01.060Z,976.38
2019-06-08T01:50:01.029Z,976.43
2019-06-08T01:51:01.033Z,976.49
2019-06-08T01:52:01.040Z,976.55
2019-06-08T01:53:01.026Z,976.56
2019-06-08T01:54:01.065Z,976.55
2019-06-08T01:55:01.037Z,976.56
2019-06-08T01:56:01.026Z,976.64
2019-06-08T01:57:01.023Z,976.66
2019-06-08T01:58:01.035Z,976.68
2019-06-08T01:59:01.074Z,976.71
2019-06-08T02:00:28.817Z,976.72
2019-06-08T02:01:01.031Z,976.74
2019-06-08T02:02:01.030Z,976.69
2019-06-08T02:03:01.018Z,976.65
2019-06-08T02:04:01.064Z,976.66
2019-06-08T02:05:01.028Z,976.66
2019-06-08T02:06:01.025Z,976.64
2019-06-08T02:07:01.028Z,976.63
2019-06-08T02:08:01.026Z,976.57
2019-06-08T02:09:01.061Z,976.60
2019-06-08T02:10:01.029Z,976.62
2019-06-08T02:11:01.018Z,976.58
2019-06-08T02:12:01.017Z,976.51
2019-06-08T02:13:01.031Z,976.52
2019-06-08T02:14:01.056Z,976.50
2019-06-08T02:15:01.018Z,976.45
2019-06-08T02:16:01.053Z,976.40
2019-06-08T02:17:01.023Z,976.41
2019-06-08T02:18:01.032Z,976.42
2019-06-08T02:19:01.049Z,976.47
2019-06-08T02:20:01.015Z,976.56
2019-06-08T02:21:01.050Z,976.50
2019-06-08T02:22:01.015Z,976.50
2019-06-08T02:23:01.022Z,976.48
2019-06-08T02:24:01.020Z,976.44
2019-06-08T02:25:01.052Z,976.38
2019-06-08T02:26:01.020Z,976.33
2019-06-08T02:27:01.023Z,976.30
2019-06-08T02:28:01.021Z,976.32
2019-06-08T02:29:01.083Z,976.42
2019-06-08T02:30:01.055Z,976.44
2019-06-08T02:31:01.015Z,976.44
2019-06-08T02:32:01.020Z,976.50
2019-06-08T02:33:01.017Z,976.53
2019-06-08T02:34:01.021Z,976.59
2019-06-08T02:35:01.045Z,976.65
2019-06-08T02:36:01.041Z,976.70
2019-06-08T02:37:01.014Z,976.73
2019-06-08T02:38:01.015Z,976.68
2019-06-08T02:39:01.019Z,976.66
2019-06-08T02:40:01.012Z,976.70
2019-06-08T02:41:01.053Z,976.74
2019-06-08T02:42:01.015Z,976.77
2019-06-08T02:43:01.014Z,976.78
2019-06-08T02:44:01.015Z,976.84
2019-06-08T02:45:01.020Z,976.89
2019-06-08T02:46:01.051Z,976.92
2019-06-08T02:47:01.016Z,976.81
2019-06-08T02:48:01.017Z,976.89
2019-06-08T02:49:04.424Z,976.89
2019-06-08T02:50:01.015Z,976.88
2019-06-08T02:51:01.042Z,976.98
2019-06-08T02:52:01.021Z,977.00
2019-06-08T02:53:01.007Z,976.96
2019-06-08T02:54:01.019Z,976.96
2019-06-08T02:55:01.011Z,977.00
2019-06-08T02:56:01.047Z,977.03
2019-06-08T02:57:01.004Z,977.05
2019-06-08T02:58:01.012Z,977.09
2019-06-08T02:59:01.007Z,977.11
2019-06-08T03:00:01.012Z,977.12
2019-06-08T03:01:01.035Z,977.18
2019-06-08T03:02:01.037Z,977.21
2019-06-08T03:03:01.005Z,977.26
2019-06-08T03:04:01.004Z,977.27
2019-06-08T03:05:01.011Z,977.34
2019-06-08T03:06:01.012Z,977.33
2019-06-08T03:07:01.033Z,977.30
2019-06-08T03:08:01.006Z,977.37
2019-06-08T03:09:01.009Z,977.39
2019-06-08T03:10:00.997Z,977.40
2019-06-08T03:11:01.006Z,977.41
2019-06-08T03:12:01.033Z,977.49
2019-06-08T03:13:01.004Z,977.45
2019-06-08T03:14:01.001Z,977.44
2019-06-08T03:15:00.999Z,977.46
2019-06-08T03:16:01.001Z,977.46
2019-06-08T03:17:01.040Z,977.46
2019-06-08T03:18:01.002Z,977.45
2019-06-08T03:19:19.995Z,977.43
2019-06-08T03:20:00.998Z,977.42
2019-06-08T03:21:00.999Z,977.38
2019-06-08T03:22:01.025Z,977.37
2019-06-08T03:23:00.994Z,977.42
2019-06-08T03:24:00.997Z,977.42
2019-06-08T03:25:00.994Z,977.46
2019-06-08T03:26:01.023Z,977.52
2019-06-08T03:27:01.021Z,977.38
2019-06-08T03:28:00.991Z,977.53
2019-06-08T03:29:00.989Z,977.47
2019-06-08T03:30:15.229Z,977.50
2019-06-08T03:31:00.992Z,977.53
2019-06-08T03:32:01.017Z,977.56
2019-06-08T03:33:01.032Z,977.58
2019-06-08T03:34:01.019Z,977.62
2019-06-08T03:35:00.989Z,977.68
2019-06-08T03:36:01.017Z,977.75
2019-06-08T03:37:00.988Z,977.78
2019-06-08T03:38:00.991Z,977.73
2019-06-08T03:39:00.981Z,977.70
2019-06-08T03:40:00.985Z,977.75
2019-06-08T03:41:01.024Z,977.74
2019-06-08T03:42:00.994Z,977.77
2019-06-08T03:43:01.830Z,977.77
2019-06-08T03:44:00.988Z,977.75
2019-06-08T03:45:00.983Z,977.79
2019-06-08T03:46:01.015Z,977.72
2019-06-08T03:47:00.990Z,977.77
2019-06-08T03:48:00.994Z,977.74
2019-06-08T03:49:00.989Z,977.74
2019-06-08T03:50:00.980Z,977.70
2019-06-08T03:51:01.007Z,977.76
2019-06-08T03:52:00.980Z,977.77
2019-06-08T03:53:00.991Z,977.79
2019-06-08T03:54:00.985Z,977.80
2019-06-08T03:55:00.979Z,977.74
2019-06-08T03:56:01.024Z,977.77
2019-06-08T03:57:00.983Z,977.79
2019-06-08T03:58:00.972Z,977.78
2019-06-08T03:59:00.981Z,977.78
2019-06-08T04:00:00.979Z,977.75
2019-06-08T04:01:01.002Z,977.83
2019-06-08T04:02:00.974Z,977.83
2019-06-08T04:03:00.979Z,977.82
2019-06-08T04:04:00.973Z,977.87
2019-06-08T04:05:00.970Z,977.85
2019-06-08T04:06:00.999Z,977.91
2019-06-08T04:07:00.976Z,977.87
2019-06-08T04:08:00.967Z,977.93
2019-06-08T04:09:00.985Z,977.93
2019-06-08T04:10:01.010Z,977.95
2019-06-08T04:11:00.991Z,977.99
2019-06-08T04:12:01.007Z,978.09
2019-06-08T04:13:00.970Z,978.04
2019-06-08T04:14:00.974Z,978.05
2019-06-08T04:15:00.968Z,978.07
2019-06-08T04:16:00.997Z,978.17
2019-06-08T04:17:00.972Z,978.26
2019-06-08T04:18:00.968Z,978.28
2019-06-08T04:19:00.970Z,978.23
2019-06-08T04:20:10.604Z,978.26
2019-06-08T04:21:01.000Z,978.25
2019-06-08T04:22:00.964Z,978.10
2019-06-08T04:23:00.973Z,978.16
2019-06-08T04:24:00.974Z,977.99
2019-06-08T04:25:01.657Z,977.89
2019-06-08T04:26:00.993Z,977.94
2019-06-08T04:27:00.970Z,977.98
2019-06-08T04:28:00.965Z,977.91
2019-06-08T04:29:00.968Z,977.91
2019-06-08T04:30:00.993Z,977.94
2019-06-08T04:31:00.973Z,977.98
2019-06-08T04:32:00.961Z,978.00
2019-06-08T04:33:00.974Z,978.10
2019-06-08T04:34:00.977Z,978.06
2019-06-08T04:35:00.996Z,977.99
2019-06-08T04:36:01.042Z,977.98
2019-06-08T04:37:00.971Z,977.96
2019-06-08T04:38:01.682Z,978.01
2019-06-08T04:39:00.970Z,977.96
2019-06-08T04:40:00.995Z,978.01
2019-06-08T04:41:00.978Z,978.01
2019-06-08T04:42:00.974Z,977.99
2019-06-08T04:43:00.973Z,977.92
2019-06-08T04:44:00.970Z,977.91
2019-06-08T04:45:01.001Z,977.93
2019-06-08T04:46:00.970Z,978.00
2019-06-08T04:47:00.979Z,977.96
2019-06-08T04:48:00.979Z,977.86
2019-06-08T04:49:00.976Z,977.75
2019-06-08T04:50:20.342Z,977.70
2019-06-08T04:51:00.972Z,977.65
2019-06-08T04:52:00.969Z,977.71
2019-06-08T04:53:00.972Z,977.87
2019-06-08T04:54:00.979Z,977.91
2019-06-08T04:55:01.006Z,977.93
2019-06-08T04:56:00.978Z,977.98
2019-06-08T04:57:00.977Z,978.02
2019-06-08T04:58:01.141Z,978.02
2019-06-08T04:59:00.984Z,978.00
2019-06-08T05:00:11.205Z,978.03
2019-06-08T05:01:00.973Z,978.07
2019-06-08T05:02:00.978Z,978.13
2019-06-08T05:03:00.983Z,978.15
2019-06-08T05:04:00.984Z,978.29
2019-06-08T05:05:01.015Z,978.40
2019-06-08T05:06:00.980Z,978.37
2019-06-08T05:07:00.993Z,978.35
2019-06-08T05:08:00.975Z,978.21
2019-06-08T05:09:00.979Z,978.21
2019-06-08T05:10:01.007Z,978.31
2019-06-08T05:11:00.987Z,978.34
2019-06-08T05:12:00.979Z,978.24
2019-06-08T05:13:00.980Z,978.31
2019-06-08T05:14:00.980Z,978.48
2019-06-08T05:15:01.007Z,978.44
2019-06-08T05:16:00.983Z,978.47
2019-06-08T05:17:00.982Z,978.48
2019-06-08T05:18:00.988Z,978.41
2019-06-08T05:19:00.980Z,978.31
2019-06-08T05:20:01.013Z,978.39
2019-06-08T05:21:00.984Z,978.44
2019-06-08T05:22:00.990Z,978.43
2019-06-08T05:23:00.996Z,978.46
2019-06-08T05:24:00.981Z,978.50
2019-06-08T05:25:01.206Z,978.54
2019-06-08T05:26:00.990Z,978.58
2019-06-08T05:27:00.980Z,978.52
2019-06-08T05:28:01.007Z,978.49
2019-06-08T05:29:01.020Z,978.50
2019-06-08T05:30:08.130Z,978.55
2019-06-08T05:31:01.009Z,978.63
2019-06-08T05:32:00.979Z,978.65
2019-06-08T05:33:00.982Z,978.56
2019-06-08T05:34:00.983Z,978.48
2019-06-08T05:35:01.011Z,978.55
2019-06-08T05:36:00.982Z,978.49
2019-06-08T05:37:00.982Z,978.65
2019-06-08T05:38:01.016Z,978.68
2019-06-08T05:39:00.990Z,978.65
2019-06-08T05:40:00.983Z,978.66
2019-06-08T05:41:01.008Z,978.70
2019-06-08T05:42:00.984Z,978.77
2019-06-08T05:43:00.980Z,978.78
2019-06-08T05:44:01.668Z,978.87
2019-06-08T05:45:00.982Z,979.00
2019-06-08T05:46:01.011Z,978.99
2019-06-08T05:47:00.991Z,979.12
2019-06-08T05:48:00.982Z,979.18
2019-06-08T05:49:00.983Z,979.17
2019-06-08T05:50:00.985Z,979.23
2019-06-08T05:51:04.171Z,979.31
2019-06-08T05:52:00.982Z,979.30
2019-06-08T05:53:00.987Z,979.36
2019-06-08T05:54:02.993Z,979.25
2019-06-08T05:55:00.981Z,979.28
2019-06-08T05:56:01.023Z,979.29
2019-06-08T05:57:00.980Z,979.28
2019-06-08T05:58:00.984Z,979.34
2019-06-08T05:59:00.986Z,979.32
2019-06-08T06:00:08.398Z,979.33
2019-06-08T06:01:01.010Z,979.31
2019-06-08T06:02:00.988Z,979.43
2019-06-08T06:03:00.983Z,979.38
2019-06-08T06:04:00.988Z,979.45
2019-06-08T06:05:00.988Z,979.44
2019-06-08T06:06:01.018Z,979.43
2019-06-08T06:07:00.994Z,979.48
2019-06-08T06:08:00.981Z,979.45
2019-06-08T06:09:01.006Z,979.47
2019-06-08T06:10:00.982Z,979.50
2019-06-08T06:11:00.983Z,979.44
2019-06-08T06:12:01.021Z,979.48
2019-06-08T06:13:00.987Z,979.45
2019-06-08T06:14:01.004Z,979.45
2019-06-08T06:15:00.976Z,979.44
2019-06-08T06:16:01.002Z,979.42
2019-06-08T06:17:01.791Z,979.38
2019-06-08T06:18:01.017Z,979.42
2019-06-08T06:19:00.977Z,979.41
2019-06-08T06:20:00.977Z,979.38
2019-06-08T06:21:10.383Z,979.28
2019-06-08T06:22:00.980Z,979.31
2019-06-08T06:23:01.009Z,979.33
2019-06-08T06:24:00.981Z,979.19
2019-06-08T06:25:01.019Z,979.23
2019-06-08T06:26:00.981Z,979.25
2019-06-08T06:27:00.981Z,979.42
2019-06-08T06:28:01.009Z,979.43
2019-06-08T06:29:00.993Z,979.40
2019-06-08T06:30:00.980Z,979.42
2019-06-08T06:31:00.981Z,979.47
2019-06-08T06:32:00.987Z,979.53
2019-06-08T06:33:01.015Z,979.59
2019-06-08T06:34:01.013Z,979.59
2019-06-08T06:35:00.985Z,979.56
2019-06-08T06:36:00.975Z,979.60
2019-06-08T06:37:00.985Z,979.60
2019-06-08T06:38:01.009Z,979.63
2019-06-08T06:39:01.669Z,979.67
2019-06-08T06:40:00.989Z,979.61
2019-06-08T06:41:00.980Z,979.64
2019-06-08T06:42:00.982Z,979.54
2019-06-08T06:43:01.015Z,979.62
2019-06-08T06:44:00.975Z,979.67
2019-06-08T06:45:00.975Z,979.66
2019-06-08T06:46:00.978Z,979.73
2019-06-08T06:47:00.978Z,979.60
2019-06-08T06:48:01.009Z,979.54
2019-06-08T06:49:00.983Z,979.58
2019-06-08T06:50:00.992Z,979.60
2019-06-08T06:51:00.977Z,979.66
2019-06-08T06:52:00.984Z,979.77
2019-06-08T06:53:01.012Z,979.84
2019-06-08T06:54:00.989Z,979.91
2019-06-08T06:55:00.980Z,979.91
2019-06-08T06:56:00.988Z,979.91
2019-06-08T06:57:01.003Z,980.01
2019-06-08T06:58:01.021Z,980.02
2019-06-08T06:59:00.983Z,980.14
2019-06-08T07:00:01.015Z,980.30
2019-06-08T07:01:00.995Z,980.26
2019-06-08T07:02:00.986Z,980.33
2019-06-08T07:03:00.990Z,980.42
2019-06-08T07:04:01.027Z,980.40
2019-06-08T07:05:01.018Z,980.43
2019-06-08T07:06:00.991Z,980.39
2019-06-08T07:07:01.035Z,980.37
2019-06-08T07:08:00.991Z,980.30
2019-06-08T07:09:00.993Z,980.32
2019-06-08T07:10:01.027Z,980.30
2019-06-08T07:11:00.999Z,980.32
2019-06-08T07:12:00.997Z,980.29
2019-06-08T07:13:00.997Z,980.33
2019-06-08T07:14:01.024Z,980.34
2019-06-08T07:15:01.003Z,980.31
2019-06-08T07:16:17.443Z,980.41
2019-06-08T07:17:01.001Z,980.35
2019-06-08T07:18:01.000Z,980.29
2019-06-08T07:19:01.050Z,980.33
2019-06-08T07:20:01.035Z,980.34
2019-06-08T07:21:01.007Z,980.34
2019-06-08T07:22:01.006Z,980.37
2019-06-08T07:23:01.006Z,980.36
2019-06-08T07:24:01.010Z,980.35
2019-06-08T07:25:01.046Z,980.42
2019-06-08T07:26:01.020Z,980.31
2019-06-08T07:27:01.014Z,980.45
2019-06-08T07:28:01.016Z,980.44
2019-06-08T07:29:01.017Z,980.44
2019-06-08T07:30:01.087Z,980.46
2019-06-08T07:31:01.020Z,980.52
2019-06-08T07:32:01.014Z,980.56
2019-06-08T07:33:01.026Z,980.50
2019-06-08T07:34:01.022Z,980.54
2019-06-08T07:35:01.056Z,980.48
2019-06-08T07:36:01.026Z,980.47
2019-06-08T07:37:01.033Z,980.48
2019-06-08T07:38:01.025Z,980.45
2019-06-08T07:39:01.019Z,980.43
2019-06-08T07:40:01.047Z,980.36
2019-06-08T07:41:01.846Z,980.36
2019-06-08T07:42:01.033Z,980.34
2019-06-08T07:43:01.027Z,980.35
2019-06-08T07:44:01.028Z,980.38
2019-06-08T07:45:01.056Z,980.40
2019-06-08T07:46:01.037Z,980.46
2019-06-08T07:47:01.031Z,980.54
2019-06-08T07:48:01.041Z,980.61
2019-06-08T07:49:01.035Z,980.65
2019-06-08T07:50:04.523Z,980.57
2019-06-08T07:51:01.041Z,980.55
2019-06-08T07:52:09.776Z,980.52
2019-06-08T07:53:01.041Z,980.62
2019-06-08T07:54:01.041Z,980.61
2019-06-08T07:55:01.084Z,980.64
2019-06-08T07:56:01.042Z,980.68
2019-06-08T07:57:01.047Z,980.72
2019-06-08T07:58:01.045Z,980.75
2019-06-08T07:59:01.046Z,980.78
2019-06-08T08:00:08.890Z,980.78
2019-06-08T08:01:07.672Z,980.74
2019-06-08T08:02:01.073Z,980.76
2019-06-08T08:03:01.061Z,980.68
2019-06-08T08:04:01.052Z,980.71
2019-06-08T08:05:01.051Z,980.73
2019-06-08T08:06:01.084Z,980.74
2019-06-08T08:07:01.060Z,980.80
2019-06-08T08:08:01.068Z,980.77
2019-06-08T08:09:01.068Z,980.85
2019-06-08T08:10:01.065Z,980.89
2019-06-08T08:11:01.098Z,980.95
2019-06-08T08:12:01.065Z,980.90
2019-06-08T08:13:01.075Z,980.98
2019-06-08T08:14:01.082Z,980.95
2019-06-08T08:15:01.088Z,980.95
2019-06-08T08:16:01.108Z,981.00
2019-06-08T08:17:01.077Z,980.91
2019-06-08T08:18:01.083Z,980.89
2019-06-08T08:19:01.079Z,980.86
2019-06-08T08:20:01.086Z,980.93
2019-06-08T08:21:09.107Z,980.98
2019-06-08T08:22:18.714Z,980.97
2019-06-08T08:23:05.510Z,981.04
2019-06-08T08:24:01.818Z,981.07
2019-06-08T08:25:04.579Z,981.14
2019-06-08T08:26:01.898Z,981.12
2019-06-08T08:27:03.623Z,981.14
2019-06-08T08:28:02.849Z,981.19
2019-06-08T08:29:02.978Z,981.14
2019-06-08T08:30:02.123Z,981.19
2019-06-08T08:31:01.901Z,981.29
2019-06-08T08:32:02.015Z,981.26
2019-06-08T08:33:03.131Z,981.29
2019-06-08T08:34:05.591Z,981.24
2019-06-08T08:35:02.900Z,981.21
2019-06-08T08:36:01.961Z,981.22
2019-06-08T08:37:05.502Z,981.22
2019-06-08T08:38:04.333Z,981.18
2019-06-08T08:39:02.468Z,981.16
2019-06-08T08:40:01.547Z,981.13
2019-06-08T08:41:07.355Z,981.19
2019-06-08T08:42:04.511Z,981.22
2019-06-08T08:43:01.639Z,981.30
2019-06-08T08:44:04.277Z,981.36
2019-06-08T08:45:05.088Z,981.58
2019-06-08T08:46:01.996Z,981.38
2019-06-08T08:47:02.646Z,981.37
2019-06-08T08:48:20.681Z,981.34
2019-06-08T08:49:09.087Z,981.38
2019-06-08T08:50:02.167Z,981.25
2019-06-08T08:51:03.469Z,981.29
2019-06-08T08:52:01.869Z,981.36
2019-06-08T08:53:02.362Z,981.44
2019-06-08T08:54:04.761Z,981.54
2019-06-08T08:55:02.268Z,981.45
2019-06-08T08:56:02.507Z,981.58
2019-06-08T08:57:04.527Z,981.54
2019-06-08T08:58:02.198Z,981.63
2019-06-08T08:59:02.728Z,981.54
2019-06-08T09:00:04.763Z,981.47
2019-06-08T09:01:03.465Z,981.61
2019-06-08T09:02:02.909Z,981.55
2019-06-08T09:04:04.844Z,981.46
2019-06-08T09:05:03.726Z,981.52
2019-06-08T09:06:03.724Z,981.50
2019-06-08T09:07:05.502Z,981.58
2019-06-08T09:08:02.642Z,981.51
2019-06-08T09:09:02.488Z,981.48
2019-06-08T09:10:03.489Z,981.53
2019-06-08T09:11:03.571Z,981.49
2019-06-08T09:12:04.309Z,981.62
2019-06-08T09:13:04.451Z,981.59
2019-06-08T09:14:05.183Z,981.60
2019-06-08T09:15:02.647Z,981.55
2019-06-08T09:16:04.000Z,981.56
2019-06-08T09:17:02.184Z,981.54
2019-06-08T09:18:03.700Z,981.55
2019-06-08T09:19:04.061Z,981.84
2019-06-08T09:20:03.648Z,981.63
2019-06-08T09:21:02.864Z,981.62
2019-06-08T09:22:02.820Z,981.57
2019-06-08T09:23:12.078Z,981.60
2019-06-08T09:24:03.852Z,981.54
2019-06-08T09:25:04.046Z,981.55
2019-06-08T09:26:08.656Z,981.66
2019-06-08T09:27:04.034Z,981.63
2019-06-08T09:28:04.641Z,981.81
2019-06-08T09:29:06.686Z,981.89
2019-06-08T09:30:04.573Z,981.87
2019-06-08T09:31:02.759Z,981.89
2019-06-08T09:32:03.139Z,981.90
2019-06-08T09:33:02.926Z,981.93
2019-06-08T09:34:09.138Z,981.94
2019-06-08T09:35:04.337Z,981.71
2019-06-08T09:36:04.453Z,981.93
2019-06-08T09:37:02.877Z,981.73
2019-06-08T09:38:03.735Z,981.93
2019-06-08T09:39:03.181Z,981.81
2019-06-08T09:40:02.596Z,981.74
2019-06-08T09:41:04.020Z,981.62
2019-06-08T09:42:03.508Z,981.91
2019-06-08T09:43:06.095Z,981.88
2019-06-08T09:44:05.225Z,981.85
2019-06-08T09:45:04.261Z,981.80
2019-06-08T09:46:03.590Z,981.76
2019-06-08T09:47:07.019Z,981.80
2019-06-08T09:48:03.984Z,981.81
2019-06-08T09:49:07.570Z,981.84
2019-06-08T09:50:03.348Z,981.76
2019-06-08T09:51:03.748Z,981.87
2019-06-08T09:52:03.279Z,981.59
2019-06-08T09:53:14.859Z,981.87
2019-06-08T09:54:04.744Z,981.87
2019-06-08T09:55:03.941Z,981.89
2019-06-08T09:56:05.370Z,981.83
2019-06-08T09:57:03.902Z,981.74
2019-06-08T09:58:05.179Z,981.72
2019-06-08T09:59:04.645Z,981.71
2019-06-08T10:00:08.643Z,981.80
2019-06-08T10:01:04.225Z,981.50
2019-06-08T10:02:07.480Z,981.54
2019-06-08T10:03:04.259Z,981.82
2019-06-08T10:04:02.853Z,981.80
2019-06-08T10:05:04.035Z,981.81
2019-06-08T10:06:06.880Z,981.74
2019-06-08T10:07:02.687Z,981.80
2019-06-08T10:08:02.861Z,981.77
2019-06-08T10:09:02.770Z,981.87
2019-06-08T10:10:03.082Z,981.83
2019-06-08T10:11:04.443Z,981.80
2019-06-08T10:12:04.523Z,981.84
2019-06-08T10:13:04.794Z,981.88
2019-06-08T10:14:03.697Z,981.83
2019-06-08T10:15:02.850Z,981.84
2019-06-08T10:16:03.706Z,981.85
2019-06-08T10:17:03.583Z,981.75
2019-06-08T10:18:03.163Z,981.71
2019-06-08T10:19:04.758Z,981.62
2019-06-08T10:20:03.329Z,981.71
2019-06-08T10:21:03.438Z,981.54
2019-06-08T10:22:02.936Z,981.76
2019-06-08T10:23:05.092Z,981.77
2019-06-08T10:24:04.724Z,981.69
2019-06-08T10:25:04.498Z,981.61
2019-06-08T10:26:03.484Z,981.41
2019-06-08T10:27:03.422Z,981.41
2019-06-08T10:28:10.082Z,981.42
2019-06-08T10:29:04.094Z,981.73
2019-06-08T10:30:04.278Z,981.70
2019-06-08T10:31:03.676Z,981.72
2019-06-08T10:32:01.880Z,981.49
2019-06-08T10:33:03.490Z,981.64
2019-06-08T10:34:03.575Z,981.64
2019-06-08T10:35:03.629Z,981.65
2019-06-08T10:36:03.726Z,981.72
2019-06-08T10:37:06.206Z,981.72
2019-06-08T10:38:06.423Z,981.67
2019-06-08T10:39:03.750Z,981.70
2019-06-08T10:40:05.206Z,981.69
2019-06-08T10:41:09.130Z,981.66
2019-06-08T10:42:03.554Z,981.62
2019-06-08T10:43:03.428Z,981.70
2019-06-08T10:44:03.392Z,981.85
2019-06-08T10:45:05.195Z,981.73
2019-06-08T10:46:09.431Z,981.69
2019-06-08T10:47:04.027Z,981.87
2019-06-08T10:48:03.217Z,981.78
2019-06-08T10:49:02.365Z,981.82
2019-06-08T10:50:07.461Z,981.95
2019-06-08T10:51:04.195Z,981.76
2019-06-08T10:52:03.685Z,981.64
2019-06-08T10:53:04.054Z,981.64
2019-06-08T10:54:02.230Z,981.60
2019-06-08T10:55:04.936Z,981.60
2019-06-08T10:56:03.419Z,981.70
2019-06-08T10:57:05.055Z,981.88
2019-06-08T10:58:02.365Z,981.80
2019-06-08T10:59:03.870Z,982.01
2019-06-08T11:00:11.452Z,981.79
2019-06-08T11:01:04.746Z,981.81
2019-06-08T11:02:05.384Z,982.02
2019-06-08T11:03:05.118Z,981.79
2019-06-08T11:04:03.280Z,981.77
2019-06-08T11:05:04.745Z,981.81
2019-06-08T11:06:03.302Z,982.05
2019-06-08T11:07:07.008Z,981.99
2019-06-08T11:08:02.953Z,982.09
2019-06-08T11:09:05.249Z,982.04
2019-06-08T11:10:03.657Z,981.96
2019-06-08T11:11:02.853Z,982.06
2019-06-08T11:12:03.382Z,982.02
2019-06-08T11:13:05.230Z,982.01
2019-06-08T11:14:03.831Z,981.96
2019-06-08T11:15:03.586Z,982.02
2019-06-08T11:16:03.974Z,981.71
2019-06-08T11:17:02.826Z,981.80
2019-06-08T11:18:05.838Z,981.77
2019-06-08T11:19:03.011Z,981.88
2019-06-08T11:20:04.307Z,981.84
2019-06-08T11:21:03.538Z,982.03
2019-06-08T11:22:04.816Z,981.95
2019-06-08T11:23:03.533Z,981.98
2019-06-08T11:24:14.470Z,982.00
2019-06-08T11:25:03.776Z,982.10
2019-06-08T11:26:04.616Z,982.07
2019-06-08T11:27:03.542Z,982.06
2019-06-08T11:28:03.694Z,982.10
2019-06-08T11:29:02.935Z,982.10
2019-06-08T11:30:10.852Z,982.04
2019-06-08T11:31:03.844Z,982.08
2019-06-08T11:32:03.990Z,982.07
2019-06-08T11:33:03.638Z,982.13
2019-06-08T11:34:03.909Z,982.15
2019-06-08T11:35:03.924Z,982.21
2019-06-08T11:36:05.879Z,982.21
2019-06-08T11:37:03.617Z,981.94
2019-06-08T11:38:03.734Z,981.91
2019-06-08T11:39:02.667Z,981.95
2019-06-08T11:40:04.421Z,982.18
2019-06-08T11:41:04.628Z,982.19
2019-06-08T11:42:02.545Z,982.11
2019-06-08T11:43:02.549Z,981.83
2019-06-08T11:44:03.827Z,981.91
2019-06-08T11:45:02.553Z,982.17
2019-06-08T11:46:02.665Z,981.89
2019-06-08T11:47:02.629Z,982.15
2019-06-08T11:48:02.815Z,981.91
2019-06-08T11:49:05.061Z,981.97
2019-06-08T11:50:02.899Z,981.94
2019-06-08T11:51:02.635Z,981.96
2019-06-08T11:52:02.673Z,981.90
2019-06-08T11:53:04.001Z,981.87
2019-06-08T11:54:02.983Z,982.18
2019-06-08T11:55:04.149Z,982.16
2019-06-08T11:56:02.775Z,982.14
2019-06-08T11:57:02.892Z,982.18
2019-06-08T11:58:02.940Z,982.09
2019-06-08T11:59:03.078Z,982.14
2019-06-08T12:00:10.738Z,982.09
2019-06-08T12:01:04.679Z,982.10
2019-06-08T12:02:03.543Z,982.11
2019-06-08T12:03:03.832Z,982.08
2019-06-08T12:04:03.600Z,982.04
2019-06-08T12:05:03.721Z,982.21
2019-06-08T12:06:04.112Z,982.13
2019-06-08T12:07:03.912Z,981.82
2019-06-08T12:08:02.906Z,982.10
2019-06-08T12:09:02.781Z,982.06
2019-06-08T12:10:02.977Z,981.69
2019-06-08T12:11:04.386Z,982.14
2019-06-08T12:12:02.832Z,982.04
2019-06-08T12:13:02.815Z,982.13
2019-06-08T12:14:02.827Z,982.17
2019-06-08T12:15:03.027Z,982.20
2019-06-08T12:16:03.123Z,982.12
2019-06-08T12:17:03.416Z,981.90
2019-06-08T12:18:03.391Z,981.88
2019-06-08T12:19:04.398Z,982.13
2019-06-08T12:20:03.382Z,982.12
2019-06-08T12:21:03.780Z,982.05
2019-06-08T12:22:03.875Z,982.21
2019-06-08T12:23:03.906Z,982.17
2019-06-08T12:24:04.139Z,982.03
2019-06-08T12:25:03.882Z,982.12
2019-06-08T12:26:03.948Z,982.34
2019-06-08T12:27:10.114Z,982.31
2019-06-08T12:28:04.439Z,982.35
2019-06-08T12:29:02.974Z,982.14